Time;durP1;ratioP1;P1;durP2;ratioP2;P2;SDS_P1;SDS_P2;PMS_P1;PMS_P2;Temp;Humidity;BMP_temperature;BMP_pressure;BME280_temperature;BME280_humidity;BME280_pressure;Samples;Min_cycle;Max_cycle;Signal;HPM_P1;HPM_P2
2021/09/16 00:00:59;;;;;;;30.80;10.20;;;;;;;14.45;47.06;99527.15;27211;1215;3069657;-64
2021/09/16 00:03:29;;;;;;;25.70;11.00;;;;;;;14.40;47.39;99526.65;27256;1216;3026938;-67
2021/09/16 00:05:58;;;;;;;22.40;8.90;;;;;;;14.37;47.37;99533.07;27211;1216;3026104;-64
2021/09/16 00:08:27;;;;;;;25.60;10.10;;;;;;;14.29;47.85;99528.17;27178;1216;3069649;-65
2021/09/16 00:10:56;;;;;;;28.70;10.20;;;;;;;14.22;48.01;99527.44;27206;1216;3026041;-64
2021/09/16 00:13:25;;;;;;;22.00;8.80;;;;;;;14.19;47.83;99529.95;27201;1216;3026069;-64
2021/09/16 00:16:14;;;;;;;23.60;8.90;;;;;;;14.14;48.09;99528.76;27241;1216;3068556;-65
2021/09/16 00:18:44;;;;;;;20.90;9.00;;;;;;;14.12;48.45;99525.41;27220;1215;3025987;-67
2021/09/16 00:21:33;;;;;;;24.70;9.50;;;;;;;14.09;48.41;99524.23;27185;1216;3054808;-66
2021/09/16 00:24:04;;;;;;;15.80;7.50;;;;;;;14.12;48.33;99521.38;27263;1216;3026255;-70
2021/09/16 00:26:34;;;;;;;18.80;8.40;;;;;;;14.15;48.31;99527.15;27229;1216;3026103;-64
2021/09/16 00:29:04;;;;;;;20.20;8.50;;;;;;;14.20;48.26;99527.27;27214;1216;3026204;-65
2021/09/16 00:31:36;;;;;;;20.20;7.80;;;;;;;14.18;48.47;99529.04;27199;1216;3053970;-60
2021/09/16 00:34:05;;;;;;;19.60;7.60;;;;;;;14.19;48.17;99531.71;27241;1216;3026525;-67
2021/09/16 00:36:34;;;;;;;22.00;8.20;;;;;;;14.22;48.42;99532.04;27251;1216;3050912;-65
2021/09/16 00:39:04;;;;;;;20.50;7.70;;;;;;;14.23;48.06;99534.25;27270;1216;3026928;-65
2021/09/16 00:41:40;;;;;;;21.70;8.20;;;;;;;14.26;48.35;99531.77;27242;1216;3050911;-63
2021/09/16 00:44:10;;;;;;;19.70;7.90;;;;;;;14.28;48.57;99525.14;27265;1216;3026243;-69
2021/09/16 00:46:39;;;;;;;27.60;7.70;;;;;;;14.27;48.57;99521.96;27214;1216;3025975;-65
2021/09/16 00:49:16;;;;;;;20.10;8.50;;;;;;;14.23;48.24;99522.98;27232;1216;3051362;-65
2021/09/16 00:51:46;;;;;;;19.00;7.60;;;;;;;14.20;48.41;99520.79;27260;1216;3025976;-64
2021/09/16 00:54:16;;;;;;;23.50;7.90;;;;;;;14.20;48.65;99522.65;27181;1216;3070502;-67
2021/09/16 00:56:46;;;;;;;19.90;7.40;;;;;;;14.18;48.73;99520.73;27219;1216;3026299;-69
2021/09/16 00:59:20;;;;;;;16.20;7.70;;;;;;;14.11;48.86;99519.31;27240;1216;3052475;-65
2021/09/16 01:01:50;;;;;;;18.70;7.10;;;;;;;14.13;48.71;99519.01;27177;1218;3026596;-70
2021/09/16 01:04:18;;;;;;;17.20;7.40;;;;;;;14.13;48.50;99520.42;27254;1216;3026209;-69
2021/09/16 01:06:48;;;;;;;19.90;7.80;;;;;;;14.07;48.84;99521.20;27218;1216;3027071;-64
2021/09/16 01:09:18;;;;;;;22.60;8.20;;;;;;;14.01;48.93;99524.60;27257;1216;3026037;-67
2021/09/16 01:12:07;;;;;;;24.50;7.30;;;;;;;13.98;49.10;99525.58;27410;1216;3053382;-66
2021/09/16 01:14:38;;;;;;;20.60;7.30;;;;;;;13.91;49.21;99528.66;27439;1216;3026117;-62
2021/09/16 01:17:26;;;;;;;17.70;6.70;;;;;;;13.85;49.15;99536.55;27460;1216;3053141;-64
2021/09/16 01:19:59;;;;;;;14.50;6.00;;;;;;;13.85;49.06;99535.87;27310;1216;3026242;-70
2021/09/16 01:22:48;;;;;;;13.60;6.40;;;;;;;13.82;48.80;99533.73;27228;1216;3049868;-67
2021/09/16 01:25:24;;;;;;;22.40;5.90;;;;;;;13.82;48.92;99535.52;27250;1217;3026562;-66
2021/09/16 01:27:54;;;;;;;19.90;7.40;;;;;;;13.81;48.94;99538.41;27220;1216;3049411;-69
2021/09/16 01:30:23;;;;;;;23.80;6.40;;;;;;;13.88;48.56;99536.33;27225;1216;3026466;-66
2021/09/16 01:32:55;;;;;;;16.70;6.70;;;;;;;13.83;48.84;99537.94;27272;1216;3028316;-65
2021/09/16 01:35:24;;;;;;;19.60;7.50;;;;;;;13.78;48.93;99535.81;27241;1216;3027916;-67
2021/09/16 01:37:54;;;;;;;19.90;7.50;;;;;;;13.75;49.13;99533.37;27247;1209;3026699;-67
2021/09/16 01:40:24;;;;;;;17.70;7.30;;;;;;;13.70;49.73;99533.37;27256;1216;3047881;-65
2021/09/16 01:42:53;;;;;;;15.60;6.90;;;;;;;13.61;49.65;99537.03;27216;1216;3025772;-65
2021/09/16 01:45:24;;;;;;;19.50;6.80;;;;;;;13.56;49.73;99532.63;27227;1216;3027605;-64
2021/09/16 01:48:04;;;;;;;27.20;7.80;;;;;;;13.52;49.99;99535.02;27240;1215;3051570;-67
2021/09/16 01:50:43;;;;;;;21.80;6.50;;;;;;;13.49;49.84;99526.48;27191;1215;3054679;-64
2021/09/16 01:53:24;;;;;;;21.90;8.60;;;;;;;13.45;49.91;99527.78;27186;1215;3054967;-66
2021/09/16 01:56:13;;;;;;;18.60;7.60;;;;;;;13.47;49.98;99531.56;27196;1216;3056379;-66
2021/09/16 01:58:46;;;;;;;17.80;7.00;;;;;;;13.49;49.80;99531.01;27250;1215;3025865;-66
2021/09/16 02:01:19;;;;;;;20.00;8.30;;;;;;;13.59;49.51;99527.34;27227;1215;3026070;-63
2021/09/16 02:03:52;;;;;;;21.60;9.00;;;;;;;13.60;49.65;99524.11;27222;1215;3027216;-65
2021/09/16 02:06:23;;;;;;;45.00;17.40;;;;;;;13.64;49.71;99524.34;27231;1215;3026318;-67
2021/09/16 02:08:52;;;;;;;65.00;19.00;;;;;;;13.62;49.84;99524.46;27233;1215;3026237;-66
2021/09/16 02:11:21;;;;;;;53.40;19.50;;;;;;;13.57;50.01;99526.20;27190;1215;3049770;-65
2021/09/16 02:14:10;;;;;;;43.90;15.00;;;;;;;13.54;50.44;99530.84;27203;1215;3068626;-69
2021/09/16 02:16:39;;;;;;;38.70;15.40;;;;;;;13.50;50.47;99528.33;27218;1209;3026507;-65
2021/09/16 02:19:08;;;;;;;31.50;10.50;;;;;;;13.46;50.33;99530.39;27233;1215;3049396;-66
2021/09/16 02:21:57;;;;;;;29.40;10.70;;;;;;;13.43;50.07;99533.88;27188;1215;3069604;-61
2021/09/16 02:24:26;;;;;;;35.00;14.10;;;;;;;13.42;50.15;99534.15;27218;1215;3026088;-70
2021/09/16 02:26:55;;;;;;;37.30;14.20;;;;;;;13.40;50.36;99534.62;27227;1215;3052980;-67
2021/09/16 02:29:24;;;;;;;36.30;13.40;;;;;;;13.39;50.32;99533.84;27191;1215;3027424;-66
2021/09/16 02:31:53;;;;;;;33.40;12.60;;;;;;;13.26;50.83;99540.70;27226;1215;3054867;-66
2021/09/16 02:34:22;;;;;;;34.10;12.80;;;;;;;13.00;51.78;99538.61;27245;1215;3025978;-70
2021/09/16 02:36:51;;;;;;;27.20;11.70;;;;;;;12.88;52.48;99541.08;27296;1215;3048667;-68
2021/09/16 02:39:35;;;;;;;30.90;11.20;;;;;;;12.78;52.54;99538.02;27258;1215;3054800;-62
2021/09/16 02:42:05;;;;;;;29.80;11.40;;;;;;;12.75;52.45;99538.44;27231;1215;3026163;-66
2021/09/16 02:44:34;;;;;;;33.80;13.10;;;;;;;12.71;52.85;99543.60;27208;1215;3027977;-67
2021/09/16 02:47:03;;;;;;;38.40;12.50;;;;;;;12.68;52.73;99541.73;27242;1215;3051672;-66
2021/09/16 02:49:32;;;;;;;28.00;10.10;;;;;;;12.65;52.72;99541.41;27250;1209;3026477;-65
2021/09/16 02:52:01;;;;;;;26.00;10.50;;;;;;;12.64;52.56;99535.48;27243;1215;3051584;-70
2021/09/16 02:54:50;;;;;;;27.30;9.40;;;;;;;12.71;52.13;99535.67;27221;1216;3055539;-67
2021/09/16 02:57:24;;;;;;;25.50;10.60;;;;;;;12.75;51.81;99530.16;27294;1215;3052396;-65
2021/09/16 02:59:53;;;;;;;19.70;8.20;;;;;;;12.82;51.61;99528.14;27193;1215;3027995;-67
2021/09/16 03:02:22;;;;;;;23.70;8.80;;;;;;;12.90;51.00;99529.32;27202;1215;3051769;-66
2021/09/16 03:04:51;;;;;;;21.10;8.00;;;;;;;12.93;51.16;99533.86;27287;1207;3027130;-68
2021/09/16 03:07:20;;;;;;;24.10;8.40;;;;;;;12.93;51.42;99530.31;27205;1215;3026413;-69
2021/09/16 03:09:49;;;;;;;22.20;7.60;;;;;;;12.91;51.59;99532.27;27241;1215;3051297;-63
2021/09/16 03:12:18;;;;;;;22.70;6.70;;;;;;;12.90;51.48;99532.47;27251;1215;3026110;-68
2021/09/16 03:14:48;;;;;;;17.60;6.80;;;;;;;12.88;51.72;99532.80;27217;1215;3049131;-65
2021/09/16 03:17:23;;;;;;;16.70;6.00;;;;;;;12.89;51.60;99532.69;27240;1215;3055120;-61
2021/09/16 03:19:58;;;;;;;;;;;;;;;12.90;51.59;99535.09;27242;1215;3052531;-68
2021/09/16 03:22:34;;;;;;;16.30;6.40;;;;;;;12.85;51.69;99542.98;27181;1215;3070835;-63
2021/09/16 03:25:05;;;;;;;18.30;7.10;;;;;;;12.85;52.24;99542.52;27230;1215;3026431;-65
2021/09/16 03:27:35;;;;;;;20.30;8.50;;;;;;;12.72;53.05;99544.75;27201;1215;3026132;-66
2021/09/16 03:30:09;;;;;;;24.10;7.70;;;;;;;12.57;53.71;99551.42;27269;1216;3026578;-66
2021/09/16 03:32:39;;;;;;;22.00;8.10;;;;;;;12.44;54.19;99554.24;27192;1215;3027691;-67
2021/09/16 03:35:08;;;;;;;27.50;8.70;;;;;;;12.44;54.06;99555.81;27177;1215;3027935;-69
2021/09/16 03:37:38;;;;;;;23.60;9.60;;;;;;;12.43;54.04;99554.31;27220;1216;3050963;-70
2021/09/16 03:40:08;;;;;;;25.90;9.50;;;;;;;12.41;54.39;99557.59;27229;1210;3026193;-70
2021/09/16 03:42:37;;;;;;;34.00;9.10;;;;;;;12.33;54.52;99561.48;27264;1215;3053485;-70
2021/09/16 03:45:07;;;;;;;23.00;9.30;;;;;;;12.34;54.41;99568.75;27228;1210;3026325;-69
2021/09/16 03:47:36;;;;;;;30.40;11.30;;;;;;;12.33;54.69;99563.77;27251;1215;3048190;-64
2021/09/16 03:50:05;;;;;;;38.10;12.20;;;;;;;12.29;54.73;99571.54;27250;1215;3027393;-66
2021/09/16 03:52:35;;;;;;;33.50;12.30;;;;;;;12.23;55.31;99574.61;27247;1215;3070320;-66
2021/09/16 03:55:12;;;;;;;29.20;12.30;;;;;;;12.19;55.40;99576.02;27301;1215;3049094;-66
2021/09/16 03:58:01;;;;;;;26.30;12.10;;;;;;;12.20;55.19;99577.73;27229;1215;3052387;-67
2021/09/16 04:00:30;;;;;;;32.90;12.50;;;;;;;12.20;55.12;99582.85;27193;1215;3026328;-71
2021/09/16 04:03:06;;;;;;;37.80;10.90;;;;;;;12.14;55.54;99580.41;27220;1209;3051543;-68
2021/09/16 04:05:36;;;;;;;26.00;10.40;;;;;;;12.19;55.15;99580.31;27234;1215;3051196;-64
2021/09/16 04:08:05;;;;;;;28.20;10.40;;;;;;;12.17;54.98;99582.15;27187;1215;3026116;-68
2021/09/16 04:10:34;;;;;;;27.90;11.60;;;;;;;12.23;54.44;99580.52;27242;1215;3029021;-64
2021/09/16 04:13:23;;;;;;;22.90;8.50;;;;;;;12.31;54.00;99585.63;27245;1215;3052406;-63
2021/09/16 04:15:52;;;;;;;28.50;10.70;;;;;;;12.36;53.66;99589.15;27201;1215;3026380;-66
2021/09/16 04:18:37;;;;;;;24.90;11.00;;;;;;;12.33;54.32;99590.80;27209;1215;3051044;-63
2021/09/16 04:21:06;;;;;;;31.90;11.30;;;;;;;12.34;54.25;99585.98;27207;1215;3027412;-65
2021/09/16 04:23:47;;;;;;;22.80;9.00;;;;;;;12.40;53.90;99589.64;27205;1215;3070511;-68
2021/09/16 04:26:17;;;;;;;26.50;11.00;;;;;;;12.47;53.43;99593.39;27206;1215;3026069;-64
2021/09/16 04:28:46;;;;;;;28.20;9.10;;;;;;;12.47;53.32;99594.27;27213;1215;3026144;-71
2021/09/16 04:31:15;;;;;;;20.20;8.40;;;;;;;12.53;53.04;99592.41;27288;1215;3026081;-68
2021/09/16 04:33:45;;;;;;;20.60;7.60;;;;;;;12.60;53.11;99589.52;27229;1216;3048444;-65
2021/09/16 04:36:13;;;;;;;21.90;9.30;;;;;;;12.65;52.87;99590.44;27216;1215;3025952;-67
2021/09/16 04:38:42;;;;;;;32.90;9.40;;;;;;;12.67;53.11;99590.98;27194;1215;3069796;-69
2021/09/16 04:41:11;;;;;;;28.20;9.90;;;;;;;12.70;52.63;99592.70;27210;1215;3027389;-69
2021/09/16 04:43:41;;;;;;;30.10;9.80;;;;;;;12.76;52.90;99592.35;27229;1215;3049993;-65
2021/09/16 04:46:09;;;;;;;23.50;10.10;;;;;;;12.85;53.23;99596.84;27250;1215;3028095;-68
2021/09/16 04:48:38;;;;;;;27.70;10.40;;;;;;;12.85;53.46;99598.23;27253;1215;3054452;-70
2021/09/16 04:51:07;;;;;;;26.40;10.10;;;;;;;12.83;53.45;99601.38;27215;1208;3026099;-66
2021/09/16 04:53:36;;;;;;;29.50;11.50;;;;;;;12.80;53.78;99605.27;27197;1215;3049001;-64
2021/09/16 04:56:05;;;;;;;21.60;9.80;;;;;;;12.81;54.64;99599.52;27247;1215;3026459;-68
2021/09/16 04:58:54;;;;;;;23.00;9.90;;;;;;;12.94;54.18;99599.14;27230;1216;3055863;-70
2021/09/16 05:01:44;;;;;;;24.90;9.90;;;;;;;13.11;53.75;99598.38;27198;1216;3048783;-65
2021/09/16 05:04:13;;;;;;;25.70;10.30;;;;;;;13.14;52.95;99600.98;27261;1215;3026807;-66
2021/09/16 05:06:42;;;;;;;29.40;11.00;;;;;;;13.20;52.02;99598.44;27245;1215;3025984;-69
2021/09/16 05:09:14;;;;;;;31.70;12.00;;;;;;;13.29;52.08;99596.25;27196;1215;3048867;-67
2021/09/16 05:11:46;;;;;;;43.50;13.60;;;;;;;13.36;51.91;99600.70;27205;1215;3028443;-69
2021/09/16 05:14:15;;;;;;;46.10;14.30;;;;;;;13.40;52.24;99600.29;27219;1215;3026252;-66
2021/09/16 05:16:43;;;;;;;36.60;14.00;;;;;;;13.51;51.88;99596.88;27212;1215;3028047;-66
2021/09/16 05:19:22;;;;;;;45.20;13.60;;;;;;;13.61;51.24;99600.55;27208;1215;3055559;-66
2021/09/16 05:21:51;;;;;;;45.50;13.40;;;;;;;13.70;50.10;99602.52;27239;1215;3026030;-65
2021/09/16 05:24:20;;;;;;;24.10;10.90;;;;;;;13.78;49.69;99603.40;27202;1215;3050883;-70
2021/09/16 05:27:09;;;;;;;21.60;9.80;;;;;;;13.83;49.41;99606.56;27227;1215;3055597;-65
2021/09/16 05:29:38;;;;;;;32.20;10.60;;;;;;;13.89;49.68;99608.22;27178;1215;3025997;-68
2021/09/16 05:32:07;;;;;;;25.10;11.00;;;;;;;14.02;49.56;99612.08;27221;1215;3048607;-66
2021/09/16 05:34:36;;;;;;;26.80;11.90;;;;;;;14.14;49.47;99612.05;27273;1215;3028146;-65
2021/09/16 05:37:25;;;;;;;35.80;11.70;;;;;;;14.16;49.55;99616.54;27166;1216;3056327;-63
2021/09/16 05:39:54;;;;;;;36.60;14.50;;;;;;;14.15;49.46;99619.04;27199;1215;3026138;-67
2021/09/16 05:42:23;;;;;;;44.90;14.80;;;;;;;14.17;48.94;99620.85;27197;1215;3050592;-68
2021/09/16 05:44:53;;;;;;;48.60;18.10;;;;;;;14.16;49.41;99622.70;27212;1215;3026221;-67
2021/09/16 05:47:22;;;;;;;43.00;18.40;;;;;;;14.05;49.86;99624.56;27227;1215;3026401;-65
2021/09/16 05:49:51;;;;;;;52.90;19.20;;;;;;;13.90;50.06;99622.59;27285;1215;3025892;-67
2021/09/16 05:52:21;;;;;;;44.10;18.50;;;;;;;13.94;50.47;99629.20;27253;1215;3058256;-70
2021/09/16 05:54:50;;;;;;;50.50;18.40;;;;;;;13.99;50.08;99627.59;27213;1215;3026004;-73
2021/09/16 05:57:18;;;;;;;47.00;17.30;;;;;;;14.11;49.63;99632.06;27197;1215;3052023;-68
2021/09/16 05:59:47;;;;;;;46.70;17.60;;;;;;;14.10;49.51;99629.77;27265;1215;3028206;-64
2021/09/16 06:02:18;;;;;;;55.60;18.90;;;;;;;14.20;49.74;99630.48;27235;1215;3051580;-70
2021/09/16 06:04:51;;;;;;;43.90;17.30;;;;;;;14.34;49.61;99633.31;27202;1215;3052304;-66
2021/09/16 06:07:20;;;;;;;38.80;15.30;;;;;;;14.45;48.76;99635.91;27227;1215;3026415;-69
2021/09/16 06:09:48;;;;;;;38.50;15.90;;;;;;;14.49;48.40;99637.70;27232;1215;3054252;-65
2021/09/16 06:12:17;;;;;;;45.10;15.50;;;;;;;14.64;47.89;99637.32;27202;1215;3026000;-69
2021/09/16 06:14:46;;;;;;;41.40;15.10;;;;;;;14.82;47.90;99637.91;27217;1215;3047353;-70
2021/09/16 06:17:15;;;;;;;45.90;14.50;;;;;;;14.98;47.44;99639.40;27218;1215;3026358;-66
2021/09/16 06:19:44;;;;;;;32.90;12.30;;;;;;;15.14;47.03;99636.09;27217;1215;3072368;-66
2021/09/16 06:22:14;;;;;;;34.60;12.20;;;;;;;15.31;46.62;99634.17;27190;1215;3026661;-70
2021/09/16 06:24:43;;;;;;;28.80;11.20;;;;;;;15.48;46.29;99637.10;27219;1215;3027332;-65
2021/09/16 06:27:13;;;;;;;24.50;9.80;;;;;;;15.62;45.85;99634.44;27201;1215;3070395;-65
2021/09/16 06:29:42;;;;;;;22.50;8.90;;;;;;;15.76;45.66;99635.81;27259;1215;3026431;-69
2021/09/16 06:32:27;;;;;;;24.50;9.40;;;;;;;15.87;45.51;99637.93;27178;1215;3053684;-68
2021/09/16 06:34:57;;;;;;;18.00;7.10;;;;;;;15.99;44.87;99641.21;27216;1215;3026054;-71
2021/09/16 06:37:26;;;;;;;15.50;7.00;;;;;;;16.13;43.95;99644.34;27207;1215;3026026;-69
2021/09/16 06:39:55;;;;;;;22.30;7.90;;;;;;;16.25;43.99;99645.31;27212;1215;3053694;-63
2021/09/16 06:42:24;;;;;;;28.30;8.40;;;;;;;16.36;44.35;99647.30;27240;1215;3027363;-66
2021/09/16 06:44:53;;;;;;;20.00;6.80;;;;;;;16.48;44.08;99652.66;27205;1215;3051955;-68
2021/09/16 06:47:23;;;;;;;15.80;6.50;;;;;;;16.59;44.13;99649.48;27227;1215;3025923;-66
2021/09/16 06:49:52;;;;;;;23.90;6.80;;;;;;;16.73;44.30;99650.94;27187;1215;3026342;-68
2021/09/16 06:52:22;;;;;;;21.10;5.60;;;;;;;16.84;43.41;99651.45;27211;1218;3052660;-70
2021/09/16 06:54:52;;;;;;;14.50;5.20;;;;;;;16.91;42.63;99650.88;27226;1215;3027161;-64
2021/09/16 06:57:31;;;;;;;19.70;4.90;;;;;;;16.99;42.02;99653.79;27203;1215;3070977;-69
2021/09/16 07:00:00;;;;;;;22.50;5.50;;;;;;;17.06;42.08;99652.31;27205;1215;3026216;-67
2021/09/16 07:02:31;;;;;;;20.80;5.50;;;;;;;17.11;41.93;99648.53;27232;1215;3050786;-65
2021/09/16 07:05:01;;;;;;;16.40;4.20;;;;;;;17.12;40.81;99652.84;27254;1215;3025688;-67
2021/09/16 07:07:31;;;;;;;14.80;4.60;;;;;;;17.05;40.70;99654.36;27212;1218;3025914;-66
2021/09/16 07:10:00;;;;;;;20.80;5.50;;;;;;;17.12;41.36;99653.54;27233;1215;3028852;-62
2021/09/16 07:12:31;;;;;;;12.40;4.50;;;;;;;17.24;40.84;99657.50;27228;1215;3070248;-71
2021/09/16 07:15:00;;;;;;;13.50;4.00;;;;;;;17.33;40.39;99655.33;27215;1215;3026867;-68
2021/09/16 07:17:29;;;;;;;10.20;3.20;;;;;;;17.30;39.13;99657.19;27194;1215;3050743;-70
2021/09/16 07:19:58;;;;;;;5.90;2.50;;;;;;;17.41;39.57;99651.58;27234;1215;3025893;-69
2021/09/16 07:22:27;;;;;;;5.50;2.70;;;;;;;17.56;39.66;99650.30;27237;1215;3051536;-63
2021/09/16 07:24:56;;;;;;;6.00;2.30;;;;;;;17.67;38.68;99652.24;27252;1215;3026350;-65
2021/09/16 07:27:25;;;;;;;10.00;2.80;;;;;;;17.76;38.15;99651.27;27209;1215;3051399;-64
2021/09/16 07:29:54;;;;;;;7.40;1.80;;;;;;;17.85;37.50;99652.80;27241;1215;3025981;-65
2021/09/16 07:32:23;;;;;;;9.70;2.40;;;;;;;17.90;37.70;99650.19;27221;1216;3057086;-67
2021/09/16 07:34:53;;;;;;;5.30;2.20;;;;;;;18.02;37.62;99651.15;27193;1215;3026550;-65
2021/09/16 07:37:22;;;;;;;8.40;2.50;;;;;;;17.97;37.34;99656.00;27254;1215;3026307;-65
2021/09/16 07:39:51;;;;;;;7.80;1.90;;;;;;;17.88;37.54;99649.48;27223;1215;3057715;-65
2021/09/16 07:42:19;;;;;;;10.60;3.00;;;;;;;17.91;37.65;99651.90;27243;1215;3026538;-66
2021/09/16 07:44:49;;;;;;;12.20;2.70;;;;;;;17.90;37.68;99649.00;27212;1215;3053841;-66
2021/09/16 07:47:22;;;;;;;10.50;2.40;;;;;;;18.05;37.77;99649.27;27288;1215;3027229;-68
2021/09/16 07:49:51;;;;;;;5.30;2.40;;;;;;;18.28;37.66;99651.13;27220;1215;3026037;-69
2021/09/16 07:52:20;;;;;;;6.70;3.00;;;;;;;18.24;37.44;99654.11;27248;1215;3026156;-67
2021/09/16 07:54:51;;;;;;;13.30;2.80;;;;;;;18.26;38.18;99649.36;27215;1215;3057746;-67
2021/09/16 07:57:20;;;;;;;11.90;2.60;;;;;;;18.44;37.55;99650.23;27240;1215;3028049;-68
2021/09/16 07:59:49;;;;;;;14.10;2.70;;;;;;;18.51;36.53;99652.77;27223;1215;3026524;-69
2021/09/16 08:02:18;;;;;;;4.70;2.40;;;;;;;18.58;37.10;99649.12;27229;1215;3057964;-64
2021/09/16 08:04:47;;;;;;;17.20;3.10;;;;;;;18.58;37.16;99649.84;27221;1215;3026091;-65
2021/09/16 08:07:16;;;;;;;8.20;2.90;;;;;;;18.65;37.30;99644.98;27214;1209;3054163;-69
2021/09/16 08:09:45;;;;;;;13.30;3.00;;;;;;;18.67;37.45;99645.30;27204;1215;3026086;-70
2021/09/16 08:12:32;;;;;;;7.30;3.10;;;;;;;18.78;37.28;99641.77;27214;1215;3054395;-67
2021/09/16 08:15:03;;;;;;;10.10;3.30;;;;;;;18.90;37.47;99643.05;27228;1215;3029630;-66
2021/09/16 08:17:33;;;;;;;9.50;3.40;;;;;;;18.90;38.09;99642.45;27208;1215;3026485;-65
2021/09/16 08:20:03;;;;;;;19.20;3.20;;;;;;;18.76;37.32;99636.30;27231;1215;3027120;-65
2021/09/16 08:22:33;;;;;;;11.50;2.80;;;;;;;18.74;36.41;99633.68;27212;1215;3051660;-69
2021/09/16 08:25:04;;;;;;;6.70;2.40;;;;;;;18.85;36.26;99631.04;27188;1215;3028267;-72
2021/09/16 08:27:35;;;;;;;7.40;2.00;;;;;;;19.08;35.77;99629.45;27184;1215;3026161;-69
2021/09/16 08:30:05;;;;;;;6.50;2.00;;;;;;;19.16;35.35;99627.98;27230;1219;3025937;-70
2021/09/16 08:32:35;;;;;;;8.10;3.10;;;;;;;19.26;35.00;99627.94;27253;1216;3026448;-71
2021/09/16 08:35:05;;;;;;;10.20;3.10;;;;;;;19.32;35.19;99625.48;27176;1215;3026490;-68
2021/09/16 08:37:34;;;;;;;15.30;2.80;;;;;;;19.29;35.23;99619.16;27231;1215;3055475;-67
2021/09/16 08:40:04;;;;;;;7.80;3.20;;;;;;;19.35;35.48;99622.00;27219;1215;3025942;-63
2021/09/16 08:42:34;;;;;;;5.80;2.90;;;;;;;19.25;35.33;99613.86;27192;1216;3026593;-65
2021/09/16 08:45:03;;;;;;;15.40;3.10;;;;;;;19.38;35.87;99610.38;27219;1215;3026247;-67
2021/09/16 08:47:36;;;;;;;6.10;2.80;;;;;;;19.59;35.80;99605.88;27227;1215;3026011;-67
2021/09/16 08:50:06;;;;;;;14.40;2.90;;;;;;;19.79;35.47;99603.72;27255;1215;3027480;-70
2021/09/16 08:52:39;;;;;;;7.30;2.90;;;;;;;19.91;35.05;99606.71;27221;1215;3026333;-66
2021/09/16 08:55:10;;;;;;;9.20;3.00;;;;;;;19.70;34.86;99598.98;27233;1215;3026196;-64
2021/09/16 08:57:40;;;;;;;8.20;2.90;;;;;;;19.83;34.90;99600.70;27237;1215;3026612;-66
2021/09/16 09:00:15;;;;;;;11.10;2.90;;;;;;;20.05;34.62;99603.34;27243;1215;3026417;-65
2021/09/16 09:02:46;;;;;;;8.60;3.30;;;;;;;20.27;34.48;99602.84;27199;1216;3070268;-68
2021/09/16 09:05:15;;;;;;;15.60;3.40;;;;;;;20.24;34.14;99603.86;27306;1215;3025875;-66
2021/09/16 09:07:46;;;;;;;17.70;3.30;;;;;;;19.98;34.40;99604.45;27215;1216;3026322;-65
2021/09/16 09:10:39;;;;;;;12.70;3.20;;;;;;;19.82;34.43;99605.23;27241;1216;3025825;-63
2021/09/16 09:13:20;;;;;;;9.20;2.70;;;;;;;19.85;34.36;99598.91;27212;1215;3054639;-68
2021/09/16 09:16:07;;;;;;;11.10;2.90;;;;;;;19.90;34.70;99600.37;27182;1215;3051846;-67
2021/09/16 09:18:56;;;;;;;12.90;2.40;;;;;;;19.87;34.23;99597.66;27230;1219;3052869;-65
2021/09/16 09:21:25;;;;;;;13.90;2.40;;;;;;;20.07;33.87;99592.91;27242;1216;3027670;-71
2021/09/16 09:23:55;;;;;;;8.10;2.60;;;;;;;20.42;34.03;99591.16;27229;1216;3051637;-70
2021/09/16 09:26:25;;;;;;;8.60;2.30;;;;;;;20.59;34.23;99590.77;27239;1216;3025848;-64
2021/09/16 09:29:07;;;;;;;5.10;2.40;;;;;;;20.66;32.80;99591.65;27198;1216;3058222;-71
2021/09/16 09:31:41;;;;;;;6.10;1.80;;;;;;;20.58;32.06;99587.23;27185;1216;3049572;-67
2021/09/16 09:34:30;;;;;;;10.10;2.00;;;;;;;20.60;31.64;99582.84;27252;1216;3052151;-68
2021/09/16 09:37:17;;;;;;;7.20;1.60;;;;;;;20.65;31.71;99580.88;27214;1216;3053801;-62
2021/09/16 09:39:48;;;;;;;11.00;2.10;;;;;;;20.96;31.69;99576.94;27222;1216;3071088;-70
2021/09/16 09:42:24;;;;;;;8.60;1.80;;;;;;;21.23;31.53;99574.34;27215;1218;3025934;-64
2021/09/16 09:44:55;;;;;;;6.60;1.70;;;;;;;21.41;30.84;99575.70;27241;1216;3053992;-70
2021/09/16 09:47:44;;;;;;;7.30;1.50;;;;;;;21.55;30.48;99571.54;27255;1215;3026183;-68
2021/09/16 09:50:18;;;;;;;8.50;1.50;;;;;;;21.73;30.32;99565.95;27231;1216;3058261;-70
2021/09/16 09:52:48;;;;;;;7.40;1.80;;;;;;;21.88;29.75;99562.87;27251;1216;3049601;-69
2021/09/16 09:55:18;;;;;;;5.00;1.60;;;;;;;22.01;29.52;99564.54;27214;1216;3028015;-68
2021/09/16 09:57:48;;;;;;;4.30;1.50;;;;;;;22.05;28.95;99568.09;27243;1206;3026545;-68
2021/09/16 10:00:17;;;;;;;4.60;1.40;;;;;;;22.09;28.72;99561.34;27210;1216;3026103;-66
2021/09/16 10:02:50;;;;;;;4.70;1.30;;;;;;;22.22;28.74;99569.08;27184;1219;3055593;-65
2021/09/16 10:05:32;;;;;;;;;;;;;;;22.25;28.03;99563.62;27255;1218;3053733;-68
2021/09/16 10:08:11;;;;;;;4.90;1.50;;;;;;;22.26;28.45;99567.90;27183;1218;3070537;-67
2021/09/16 10:11:01;;;;;;;5.40;1.60;;;;;;;22.40;27.89;99561.27;27245;1218;3048038;-70
2021/09/16 10:13:33;;;;;;;8.50;1.80;;;;;;;22.46;27.52;99559.07;27236;1218;3028277;-69
2021/09/16 10:16:05;;;;;;;6.40;1.60;;;;;;;22.52;28.01;99561.70;27224;1219;3026156;-63
2021/09/16 10:18:53;;;;;;;4.80;2.10;;;;;;;22.41;27.59;99563.52;27225;1219;3056352;-70
2021/09/16 10:21:23;;;;;;;3.90;1.70;;;;;;;22.55;27.67;99570.24;27234;1218;3026055;-66
2021/09/16 10:23:53;;;;;;;12.60;1.40;;;;;;;22.77;27.50;99566.90;27213;1218;3051926;-67
2021/09/16 10:26:33;;;;;;;4.40;1.40;;;;;;;22.90;27.06;99565.48;27227;1218;3028594;-67
2021/09/16 10:29:27;;;;;;;4.70;1.40;;;;;;;22.85;27.08;99559.89;27202;1217;3053016;-70
2021/09/16 10:32:05;;;;;;;7.50;1.90;;;;;;;22.65;27.26;99563.56;27171;1220;3053747;-68
2021/09/16 10:34:47;;;;;;;6.20;1.40;;;;;;;22.59;27.39;99556.95;27157;1221;3050840;-65
2021/09/16 10:37:18;;;;;;;6.60;1.70;;;;;;;22.89;27.15;99560.36;27199;1222;3070464;-68
2021/09/16 10:39:48;;;;;;;11.70;1.90;;;;;;;23.04;27.24;99556.42;27102;1222;3026511;-65
2021/09/16 10:42:18;;;;;;;7.50;2.10;;;;;;;23.19;27.08;99559.59;27146;1222;3025883;-63
2021/09/16 10:45:07;;;;;;;4.70;1.70;;;;;;;23.17;27.06;99555.54;27150;1221;3055008;-65
2021/09/16 10:47:37;;;;;;;9.50;1.40;;;;;;;23.28;26.77;99557.23;27146;1222;3026516;-70
2021/09/16 10:50:25;;;;;;;7.80;1.50;;;;;;;23.06;26.82;99555.36;27112;1220;3050560;-65
2021/09/16 10:53:44;;;;;;;4.30;1.40;;;;;;;22.92;26.97;99556.30;27138;1220;3053180;-61
2021/09/16 10:56:31;;;;;;;7.10;1.40;;;;;;;22.73;27.11;99553.75;27186;1221;3051288;-63
2021/09/16 10:59:00;;;;;;;3.40;1.70;;;;;;;22.97;27.24;99554.17;27118;1222;3070566;-67
2021/09/16 11:01:59;;;;;;;5.80;1.40;;;;;;;23.09;27.41;99551.04;27147;1222;3026112;-66
2021/09/16 11:07:35;;;;;;;3.60;1.70;;;;;;;23.38;27.03;99542.98;27087;1224;3052417;-67
2021/09/16 11:10:27;;;;;;;4.90;1.40;;;;;;;23.49;27.20;99539.95;27071;1222;3058833;-71
2021/09/16 11:13:04;;;;;;;4.90;1.50;;;;;;;23.65;27.25;99542.98;27162;1221;3026014;-65
2021/09/16 11:15:36;;;;;;;8.60;1.50;;;;;;;23.79;27.26;99545.06;27156;1221;3054048;-69
2021/09/16 11:18:16;;;;;;;8.30;1.70;;;;;;;23.92;26.60;99536.37;27163;1220;3027656;-68
2021/09/16 11:20:48;;;;;;;5.30;1.30;;;;;;;24.00;26.02;99532.55;27129;1221;3070878;-66
2021/09/16 11:23:42;;;;;;;2.90;1.20;;;;;;;24.19;26.24;99528.02;27141;1222;3049123;-69
2021/09/16 11:26:17;;;;;;;5.40;1.50;;;;;;;24.24;25.48;99523.23;27154;1222;3054303;-63
2021/09/16 11:28:57;;;;;;;3.50;1.60;;;;;;;24.11;25.28;99521.64;27173;1222;3052136;-64
2021/09/16 11:31:26;;;;;;;6.10;1.50;;;;;;;24.23;25.00;99518.72;27143;1221;3057144;-69
2021/09/16 11:34:06;;;;;;;7.00;1.80;;;;;;;24.25;24.93;99513.84;27121;1220;3026474;-66
2021/09/16 11:36:35;;;;;;;5.00;1.80;;;;;;;24.14;25.03;99520.34;27143;1221;3054303;-65
2021/09/16 11:39:15;;;;;;;10.10;1.90;;;;;;;24.19;25.23;99517.08;27159;1221;3025827;-66